Will Rogers World Airport Oklahoma City US
ICAO: KOKC
IATA: OKC
Category: Large
Scheduled Services: Yes

Elevation: 1295 ft
TransAlt. 18000 ft.

Airport Communications:
OKE CITY APP/DEP:120.45
ATIS:125.85
CLNC DEL:124.35
GND:121.9
ANG OPS COMD POST:22.56
ROGERS TWR:119.35

KOKC Zoom In..

Runways:

(A) RW 13 length 7800 ft width 150 ft
---- / hdg 130

(B) RW 17L length 9802 ft width 150 ft
ILS 110.90 / hdg 175

(C) RW 17R length 9800 ft width 150 ft
ILS 110.70 / hdg 175

(D) RW 18 length 3078 ft width 75 ft
---- / hdg 175

(E) RW 31 length 7800 ft width 150 ft
---- / hdg 310

(F) RW 35L length 9800 ft width 150 ft
ILS 110.70 / hdg 355

(G) RW 35R length 9802 ft width 150 ft
ILS 110.90 / hdg 355

(H) RW 36 length 3078 ft width 75 ft
---- / hdg 355

Location; KOKC
Day. 21 / Time. 23.52 Zulu
* Altimeter: 29.63
* Temperature: 18° c. 64.4°f.
* Wind from: 210° Speed 12 kn.
Dewpoint: 00° c.
Visibility: 10 Statute Miles.
Clouds: Few 6000 ft.
Clouds: Scattered 12000 ft.
Conditions: Towering CB.

KOKC 212352Z 21012KT 10SM FEW060 SCT120 18/00 A2963 RMK AO2 PK WND 21030/2327 SLP029 TCU DSNT SE T01780000 10211 20167 58008


Wind From 210°
Speed 12 kn.

jpsM music video
CHECK IT OUT

jpsM - It Moves..

 
jpsmedia.com for Web Design  worldairports.se 2018   terms of use